sensor_id;sensor_type;location;lat;lon;timestamp;P1;durP1;ratioP1;P2;durP2;ratioP2
7703;SDS011;3894;49.700;10.770;2022-10-16T00:01:25;15.07;;;13.87;;
7703;SDS011;3894;49.700;10.770;2022-10-16T00:03:53;13.43;;;12.43;;
7703;SDS011;3894;49.700;10.770;2022-10-16T00:06:20;13.13;;;12.07;;
7703;SDS011;3894;49.700;10.770;2022-10-16T00:08:47;12.88;;;11.82;;
7703;SDS011;3894;49.700;10.770;2022-10-16T00:11:15;12.85;;;11.55;;
7703;SDS011;3894;49.700;10.770;2022-10-16T00:13:44;10.40;;;9.40;;
7703;SDS011;3894;49.700;10.770;2022-10-16T00:16:11;13.07;;;12.00;;
7703;SDS011;3894;49.700;10.770;2022-10-16T00:18:38;12.00;;;10.88;;
7703;SDS011;3894;49.700;10.770;2022-10-16T00:21:05;12.95;;;11.85;;
7703;SDS011;3894;49.700;10.770;2022-10-16T00:23:36;11.50;;;10.40;;
7703;SDS011;3894;49.700;10.770;2022-10-16T00:26:03;13.10;;;12.10;;
7703;SDS011;3894;49.700;10.770;2022-10-16T00:28:31;10.57;;;9.77;;
7703;SDS011;3894;49.700;10.770;2022-10-16T00:30:57;11.93;;;10.88;;
7703;SDS011;3894;49.700;10.770;2022-10-16T00:33:24;11.38;;;10.43;;
7703;SDS011;3894;49.700;10.770;2022-10-16T00:35:49;12.68;;;11.75;;
7703;SDS011;3894;49.700;10.770;2022-10-16T00:38:15;10.80;;;9.77;;
7703;SDS011;3894;49.700;10.770;2022-10-16T00:40:41;10.10;;;9.15;;
7703;SDS011;3894;49.700;10.770;2022-10-16T00:43:13;9.38;;;8.57;;
7703;SDS011;3894;49.700;10.770;2022-10-16T00:45:58;11.82;;;10.93;;
7703;SDS011;3894;49.700;10.770;2022-10-16T00:48:24;11.75;;;10.70;;
7703;SDS011;3894;49.700;10.770;2022-10-16T00:50:49;11.32;;;10.27;;
7703;SDS011;3894;49.700;10.770;2022-10-16T00:53:15;10.65;;;9.73;;
7703;SDS011;3894;49.700;10.770;2022-10-16T00:55:42;10.38;;;9.48;;
7703;SDS011;3894;49.700;10.770;2022-10-16T00:58:08;11.18;;;10.23;;
7703;SDS011;3894;49.700;10.770;2022-10-16T01:00:34;10.98;;;10.07;;
7703;SDS011;3894;49.700;10.770;2022-10-16T01:03:00;10.38;;;9.57;;
7703;SDS011;3894;49.700;10.770;2022-10-16T01:05:30;10.57;;;9.65;;
7703;SDS011;3894;49.700;10.770;2022-10-16T01:17:34;10.38;;;9.50;;
7703;SDS011;3894;49.700;10.770;2022-10-16T01:20:20;11.10;;;10.07;;
7703;SDS011;3894;49.700;10.770;2022-10-16T01:23:09;11.48;;;10.63;;
7703;SDS011;3894;49.700;10.770;2022-10-16T01:28:20;11.65;;;10.90;;
7703;SDS011;3894;49.700;10.770;2022-10-16T01:30:49;11.25;;;10.27;;
7703;SDS011;3894;49.700;10.770;2022-10-16T01:33:21;12.20;;;11.40;;
7703;SDS011;3894;49.700;10.770;2022-10-16T01:35:53;11.95;;;10.95;;
7703;SDS011;3894;49.700;10.770;2022-10-16T01:40:50;9.95;;;9.10;;
7703;SDS011;3894;49.700;10.770;2022-10-16T01:43:23;9.23;;;8.52;;
7703;SDS011;3894;49.700;10.770;2022-10-16T01:45:53;9.35;;;8.45;;
7703;SDS011;3894;49.700;10.770;2022-10-16T01:48:20;9.23;;;8.63;;
7703;SDS011;3894;49.700;10.770;2022-10-16T01:50:50;11.23;;;10.05;;
7703;SDS011;3894;49.700;10.770;2022-10-16T01:53:21;9.43;;;8.60;;
7703;SDS011;3894;49.700;10.770;2022-10-16T01:55:48;9.73;;;8.90;;
7703;SDS011;3894;49.700;10.770;2022-10-16T01:58:17;9.57;;;8.88;;
7703;SDS011;3894;49.700;10.770;2022-10-16T02:00:43;10.27;;;9.57;;
7703;SDS011;3894;49.700;10.770;2022-10-16T02:03:12;10.07;;;9.38;;
7703;SDS011;3894;49.700;10.770;2022-10-16T02:08:21;13.93;;;12.98;;
7703;SDS011;3894;49.700;10.770;2022-10-16T02:10:49;12.63;;;11.63;;
7703;SDS011;3894;49.700;10.770;2022-10-16T02:15:55;11.13;;;10.27;;
7703;SDS011;3894;49.700;10.770;2022-10-16T02:18:20;12.18;;;11.32;;
7703;SDS011;3894;49.700;10.770;2022-10-16T02:20:55;10.77;;;9.95;;
7703;SDS011;3894;49.700;10.770;2022-10-16T02:23:37;12.60;;;11.65;;
7703;SDS011;3894;49.700;10.770;2022-10-16T02:26:15;11.35;;;10.40;;
7703;SDS011;3894;49.700;10.770;2022-10-16T02:28:50;11.90;;;10.98;;
7703;SDS011;3894;49.700;10.770;2022-10-16T02:31:22;10.35;;;9.32;;
7703;SDS011;3894;49.700;10.770;2022-10-16T02:33:52;10.73;;;9.93;;
7703;SDS011;3894;49.700;10.770;2022-10-16T02:36:21;10.05;;;9.35;;
7703;SDS011;3894;49.700;10.770;2022-10-16T02:38:47;11.43;;;10.68;;
7703;SDS011;3894;49.700;10.770;2022-10-16T02:41:13;9.70;;;9.02;;
7703;SDS011;3894;49.700;10.770;2022-10-16T02:43:39;12.05;;;11.18;;
7703;SDS011;3894;49.700;10.770;2022-10-16T02:46:04;13.48;;;12.68;;
7703;SDS011;3894;49.700;10.770;2022-10-16T02:48:30;14.70;;;13.73;;
7703;SDS011;3894;49.700;10.770;2022-10-16T02:50:55;14.55;;;13.45;;
7703;SDS011;3894;49.700;10.770;2022-10-16T02:53:22;13.35;;;12.65;;
7703;SDS011;3894;49.700;10.770;2022-10-16T02:55:47;11.40;;;10.60;;
7703;SDS011;3894;49.700;10.770;2022-10-16T02:58:13;13.25;;;12.50;;
7703;SDS011;3894;49.700;10.770;2022-10-16T03:00:38;12.80;;;12.07;;
7703;SDS011;3894;49.700;10.770;2022-10-16T03:03:04;15.38;;;14.32;;
7703;SDS011;3894;49.700;10.770;2022-10-16T03:05:29;15.88;;;14.88;;
7703;SDS011;3894;49.700;10.770;2022-10-16T03:07:55;17.30;;;16.17;;
7703;SDS011;3894;49.700;10.770;2022-10-16T03:10:21;16.27;;;15.20;;
7703;SDS011;3894;49.700;10.770;2022-10-16T03:12:46;14.10;;;13.18;;
7703;SDS011;3894;49.700;10.770;2022-10-16T03:15:12;14.88;;;13.88;;
7703;SDS011;3894;49.700;10.770;2022-10-16T03:17:37;14.18;;;13.05;;
7703;SDS011;3894;49.700;10.770;2022-10-16T03:20:03;14.70;;;13.63;;
7703;SDS011;3894;49.700;10.770;2022-10-16T03:22:29;13.43;;;12.55;;
7703;SDS011;3894;49.700;10.770;2022-10-16T03:24:54;13.02;;;12.07;;
7703;SDS011;3894;49.700;10.770;2022-10-16T03:27:20;12.82;;;11.77;;
7703;SDS011;3894;49.700;10.770;2022-10-16T03:29:45;12.57;;;11.48;;
7703;SDS011;3894;49.700;10.770;2022-10-16T03:32:11;14.23;;;12.82;;
7703;SDS011;3894;49.700;10.770;2022-10-16T03:34:36;11.95;;;11.07;;
7703;SDS011;3894;49.700;10.770;2022-10-16T03:37:02;11.80;;;10.65;;
7703;SDS011;3894;49.700;10.770;2022-10-16T03:39:28;11.30;;;10.48;;
7703;SDS011;3894;49.700;10.770;2022-10-16T03:41:54;11.02;;;10.23;;
7703;SDS011;3894;49.700;10.770;2022-10-16T03:44:19;13.40;;;12.48;;
7703;SDS011;3894;49.700;10.770;2022-10-16T03:46:45;12.25;;;11.38;;
7703;SDS011;3894;49.700;10.770;2022-10-16T03:49:10;10.25;;;9.55;;
7703;SDS011;3894;49.700;10.770;2022-10-16T03:51:36;12.88;;;11.93;;
7703;SDS011;3894;49.700;10.770;2022-10-16T03:54:02;14.50;;;13.63;;
7703;SDS011;3894;49.700;10.770;2022-10-16T03:56:27;14.98;;;13.98;;
7703;SDS011;3894;49.700;10.770;2022-10-16T03:58:53;14.70;;;13.57;;
7703;SDS011;3894;49.700;10.770;2022-10-16T04:01:18;14.65;;;13.85;;
7703;SDS011;3894;49.700;10.770;2022-10-16T04:03:44;14.00;;;12.95;;
7703;SDS011;3894;49.700;10.770;2022-10-16T04:06:09;14.50;;;13.35;;
7703;SDS011;3894;49.700;10.770;2022-10-16T04:08:35;13.18;;;12.18;;
7703;SDS011;3894;49.700;10.770;2022-10-16T04:11:01;15.82;;;14.32;;
7703;SDS011;3894;49.700;10.770;2022-10-16T04:13:28;16.42;;;15.18;;
7703;SDS011;3894;49.700;10.770;2022-10-16T04:15:54;13.90;;;12.98;;
7703;SDS011;3894;49.700;10.770;2022-10-16T04:18:19;13.57;;;12.65;;
7703;SDS011;3894;49.700;10.770;2022-10-16T04:20:45;14.65;;;13.68;;
7703;SDS011;3894;49.700;10.770;2022-10-16T04:23:11;13.55;;;12.52;;
7703;SDS011;3894;49.700;10.770;2022-10-16T04:25:36;12.25;;;11.40;;
7703;SDS011;3894;49.700;10.770;2022-10-16T04:28:02;13.32;;;12.30;;
7703;SDS011;3894;49.700;10.770;2022-10-16T04:30:28;14.07;;;13.13;;
7703;SDS011;3894;49.700;10.770;2022-10-16T04:32:53;17.10;;;16.23;;
7703;SDS011;3894;49.700;10.770;2022-10-16T04:35:19;16.85;;;15.75;;
7703;SDS011;3894;49.700;10.770;2022-10-16T04:37:45;13.95;;;13.15;;
7703;SDS011;3894;49.700;10.770;2022-10-16T04:40:11;17.23;;;16.15;;
7703;SDS011;3894;49.700;10.770;2022-10-16T04:42:37;18.52;;;17.27;;
7703;SDS011;3894;49.700;10.770;2022-10-16T04:45:03;14.52;;;13.50;;
7703;SDS011;3894;49.700;10.770;2022-10-16T04:47:30;15.75;;;14.85;;
7703;SDS011;3894;49.700;10.770;2022-10-16T04:49:55;13.90;;;13.00;;
7703;SDS011;3894;49.700;10.770;2022-10-16T04:52:21;15.43;;;14.40;;
7703;SDS011;3894;49.700;10.770;2022-10-16T04:54:49;15.48;;;14.57;;
7703;SDS011;3894;49.700;10.770;2022-10-16T04:57:15;15.88;;;14.82;;
7703;SDS011;3894;49.700;10.770;2022-10-16T04:59:41;14.50;;;13.70;;
7703;SDS011;3894;49.700;10.770;2022-10-16T05:02:06;14.25;;;13.40;;
7703;SDS011;3894;49.700;10.770;2022-10-16T05:04:32;13.15;;;12.27;;
7703;SDS011;3894;49.700;10.770;2022-10-16T05:06:57;14.48;;;13.48;;
7703;SDS011;3894;49.700;10.770;2022-10-16T05:09:23;14.57;;;13.55;;
7703;SDS011;3894;49.700;10.770;2022-10-16T05:11:49;14.55;;;13.68;;
7703;SDS011;3894;49.700;10.770;2022-10-16T05:14:14;11.88;;;11.18;;
7703;SDS011;3894;49.700;10.770;2022-10-16T05:16:40;12.77;;;11.90;;
7703;SDS011;3894;49.700;10.770;2022-10-16T05:19:05;15.38;;;14.50;;
7703;SDS011;3894;49.700;10.770;2022-10-16T05:21:31;14.15;;;13.18;;
7703;SDS011;3894;49.700;10.770;2022-10-16T05:23:56;14.50;;;13.68;;
7703;SDS011;3894;49.700;10.770;2022-10-16T05:26:22;14.98;;;13.82;;
7703;SDS011;3894;49.700;10.770;2022-10-16T05:28:48;13.30;;;12.50;;
7703;SDS011;3894;49.700;10.770;2022-10-16T05:31:14;13.30;;;12.60;;
7703;SDS011;3894;49.700;10.770;2022-10-16T05:33:40;17.48;;;16.42;;
7703;SDS011;3894;49.700;10.770;2022-10-16T05:36:06;18.50;;;17.20;;
7703;SDS011;3894;49.700;10.770;2022-10-16T05:38:34;16.88;;;15.50;;
7703;SDS011;3894;49.700;10.770;2022-10-16T05:41:00;15.77;;;14.88;;
7703;SDS011;3894;49.700;10.770;2022-10-16T05:43:29;15.90;;;14.80;;
7703;SDS011;3894;49.700;10.770;2022-10-16T05:45:57;12.23;;;11.43;;
7703;SDS011;3894;49.700;10.770;2022-10-16T05:48:23;15.05;;;13.05;;
7703;SDS011;3894;49.700;10.770;2022-10-16T05:50:56;14.15;;;13.20;;
7703;SDS011;3894;49.700;10.770;2022-10-16T05:53:33;17.70;;;16.30;;
7703;SDS011;3894;49.700;10.770;2022-10-16T05:55:59;18.33;;;16.98;;
7703;SDS011;3894;49.700;10.770;2022-10-16T05:58:30;15.75;;;14.55;;
7703;SDS011;3894;49.700;10.770;2022-10-16T06:00:58;17.60;;;14.30;;
7703;SDS011;3894;49.700;10.770;2022-10-16T06:03:26;16.42;;;15.10;;
7703;SDS011;3894;49.700;10.770;2022-10-16T06:05:52;17.40;;;15.95;;
7703;SDS011;3894;49.700;10.770;2022-10-16T06:08:18;13.68;;;12.68;;
7703;SDS011;3894;49.700;10.770;2022-10-16T06:10:44;15.43;;;14.43;;
7703;SDS011;3894;49.700;10.770;2022-10-16T06:13:11;15.68;;;14.68;;
7703;SDS011;3894;49.700;10.770;2022-10-16T06:15:37;13.88;;;12.98;;
7703;SDS011;3894;49.700;10.770;2022-10-16T06:18:04;15.32;;;14.32;;
7703;SDS011;3894;49.700;10.770;2022-10-16T06:20:30;13.95;;;12.85;;
7703;SDS011;3894;49.700;10.770;2022-10-16T06:22:55;15.70;;;14.57;;
7703;SDS011;3894;49.700;10.770;2022-10-16T06:25:21;16.15;;;14.85;;
7703;SDS011;3894;49.700;10.770;2022-10-16T06:27:47;15.80;;;14.70;;
7703;SDS011;3894;49.700;10.770;2022-10-16T06:30:13;16.05;;;14.70;;
7703;SDS011;3894;49.700;10.770;2022-10-16T06:32:38;14.40;;;13.30;;
7703;SDS011;3894;49.700;10.770;2022-10-16T06:35:04;13.27;;;12.38;;
7703;SDS011;3894;49.700;10.770;2022-10-16T06:37:29;14.30;;;13.18;;
7703;SDS011;3894;49.700;10.770;2022-10-16T06:39:55;12.65;;;11.65;;
7703;SDS011;3894;49.700;10.770;2022-10-16T06:42:21;12.65;;;11.77;;
7703;SDS011;3894;49.700;10.770;2022-10-16T06:44:46;11.73;;;10.77;;
7703;SDS011;3894;49.700;10.770;2022-10-16T06:47:12;12.20;;;11.27;;
7703;SDS011;3894;49.700;10.770;2022-10-16T06:49:37;14.02;;;13.02;;
7703;SDS011;3894;49.700;10.770;2022-10-16T06:52:03;13.75;;;12.85;;
7703;SDS011;3894;49.700;10.770;2022-10-16T06:54:28;13.70;;;12.90;;
7703;SDS011;3894;49.700;10.770;2022-10-16T06:56:54;17.05;;;15.30;;
7703;SDS011;3894;49.700;10.770;2022-10-16T06:59:23;20.98;;;19.10;;
7703;SDS011;3894;49.700;10.770;2022-10-16T07:01:48;17.42;;;15.73;;
7703;SDS011;3894;49.700;10.770;2022-10-16T07:04:14;15.73;;;14.43;;
7703;SDS011;3894;49.700;10.770;2022-10-16T07:06:39;16.58;;;14.35;;
7703;SDS011;3894;49.700;10.770;2022-10-16T07:09:06;13.73;;;12.52;;
7703;SDS011;3894;49.700;10.770;2022-10-16T07:11:34;13.20;;;12.25;;
7703;SDS011;3894;49.700;10.770;2022-10-16T07:14:01;13.40;;;12.40;;
7703;SDS011;3894;49.700;10.770;2022-10-16T07:16:27;15.05;;;14.10;;
7703;SDS011;3894;49.700;10.770;2022-10-16T07:18:54;15.70;;;14.82;;
7703;SDS011;3894;49.700;10.770;2022-10-16T07:21:24;15.55;;;14.65;;
7703;SDS011;3894;49.700;10.770;2022-10-16T07:23:51;16.00;;;14.85;;
7703;SDS011;3894;49.700;10.770;2022-10-16T07:26:22;13.65;;;12.73;;
7703;SDS011;3894;49.700;10.770;2022-10-16T07:28:48;15.73;;;14.75;;
7703;SDS011;3894;49.700;10.770;2022-10-16T07:31:15;14.65;;;13.75;;
7703;SDS011;3894;49.700;10.770;2022-10-16T07:33:42;15.68;;;14.50;;
7703;SDS011;3894;49.700;10.770;2022-10-16T07:36:09;16.23;;;15.23;;
7703;SDS011;3894;49.700;10.770;2022-10-16T07:38:36;15.63;;;14.73;;
7703;SDS011;3894;49.700;10.770;2022-10-16T07:41:04;15.70;;;14.80;;
7703;SDS011;3894;49.700;10.770;2022-10-16T07:43:31;15.10;;;14.25;;
7703;SDS011;3894;49.700;10.770;2022-10-16T07:45:57;17.02;;;15.90;;
7703;SDS011;3894;49.700;10.770;2022-10-16T07:48:23;16.65;;;15.70;;
7703;SDS011;3894;49.700;10.770;2022-10-16T07:50:51;18.10;;;17.20;;
7703;SDS011;3894;49.700;10.770;2022-10-16T07:53:17;14.23;;;13.32;;
7703;SDS011;3894;49.700;10.770;2022-10-16T07:55:42;18.40;;;17.48;;
7703;SDS011;3894;49.700;10.770;2022-10-16T07:58:08;19.98;;;18.98;;
7703;SDS011;3894;49.700;10.770;2022-10-16T08:00:33;18.63;;;17.63;;
7703;SDS011;3894;49.700;10.770;2022-10-16T08:03:00;16.05;;;15.25;;
7703;SDS011;3894;49.700;10.770;2022-10-16T08:05:29;19.45;;;17.95;;
7703;SDS011;3894;49.700;10.770;2022-10-16T08:07:57;16.33;;;15.13;;
7703;SDS011;3894;49.700;10.770;2022-10-16T08:10:24;17.33;;;16.27;;
7703;SDS011;3894;49.700;10.770;2022-10-16T08:12:51;18.10;;;16.90;;
7703;SDS011;3894;49.700;10.770;2022-10-16T08:15:17;20.77;;;19.40;;
7703;SDS011;3894;49.700;10.770;2022-10-16T08:17:43;20.05;;;18.77;;
7703;SDS011;3894;49.700;10.770;2022-10-16T08:20:09;16.52;;;15.60;;
7703;SDS011;3894;49.700;10.770;2022-10-16T08:22:35;16.52;;;15.55;;
7703;SDS011;3894;49.700;10.770;2022-10-16T08:25:01;18.13;;;17.02;;
7703;SDS011;3894;49.700;10.770;2022-10-16T08:27:32;20.63;;;19.33;;
7703;SDS011;3894;49.700;10.770;2022-10-16T08:29:58;21.50;;;20.20;;
7703;SDS011;3894;49.700;10.770;2022-10-16T08:32:24;19.15;;;18.05;;
7703;SDS011;3894;49.700;10.770;2022-10-16T08:34:49;17.05;;;16.15;;
7703;SDS011;3894;49.700;10.770;2022-10-16T08:37:15;17.90;;;16.90;;
7703;SDS011;3894;49.700;10.770;2022-10-16T08:39:40;18.15;;;17.20;;
7703;SDS011;3894;49.700;10.770;2022-10-16T08:44:53;16.40;;;15.38;;
7703;SDS011;3894;49.700;10.770;2022-10-16T08:50:42;16.85;;;15.85;;
7703;SDS011;3894;49.700;10.770;2022-10-16T08:53:10;15.00;;;14.10;;
7703;SDS011;3894;49.700;10.770;2022-10-16T08:55:43;16.02;;;15.13;;
7703;SDS011;3894;49.700;10.770;2022-10-16T08:58:20;16.65;;;15.75;;
7703;SDS011;3894;49.700;10.770;2022-10-16T09:00:49;17.23;;;16.25;;
7703;SDS011;3894;49.700;10.770;2022-10-16T09:03:22;14.07;;;13.13;;
7703;SDS011;3894;49.700;10.770;2022-10-16T09:14:11;15.95;;;15.13;;
7703;SDS011;3894;49.700;10.770;2022-10-16T09:16:39;15.40;;;14.27;;
7703;SDS011;3894;49.700;10.770;2022-10-16T09:19:22;15.05;;;14.23;;
7703;SDS011;3894;49.700;10.770;2022-10-16T09:21:56;15.80;;;14.90;;
7703;SDS011;3894;49.700;10.770;2022-10-16T09:24:25;15.27;;;14.38;;
7703;SDS011;3894;49.700;10.770;2022-10-16T09:26:51;13.75;;;12.85;;
7703;SDS011;3894;49.700;10.770;2022-10-16T09:29:17;15.82;;;14.82;;
7703;SDS011;3894;49.700;10.770;2022-10-16T09:31:50;15.98;;;15.02;;
7703;SDS011;3894;49.700;10.770;2022-10-16T09:36:47;15.70;;;14.77;;
7703;SDS011;3894;49.700;10.770;2022-10-16T09:39:12;14.73;;;13.93;;
7703;SDS011;3894;49.700;10.770;2022-10-16T09:41:39;16.67;;;15.48;;
7703;SDS011;3894;49.700;10.770;2022-10-16T09:44:18;17.60;;;16.48;;
7703;SDS011;3894;49.700;10.770;2022-10-16T09:46:44;16.50;;;15.50;;
7703;SDS011;3894;49.700;10.770;2022-10-16T09:49:23;16.63;;;15.63;;
7703;SDS011;3894;49.700;10.770;2022-10-16T09:51:50;18.23;;;17.13;;
7703;SDS011;3894;49.700;10.770;2022-10-16T09:54:27;15.23;;;14.30;;
7703;SDS011;3894;49.700;10.770;2022-10-16T09:57:03;14.13;;;13.13;;
7703;SDS011;3894;49.700;10.770;2022-10-16T09:59:31;15.77;;;14.63;;
7703;SDS011;3894;49.700;10.770;2022-10-16T10:02:00;13.60;;;12.77;;
7703;SDS011;3894;49.700;10.770;2022-10-16T10:04:36;13.82;;;12.95;;
7703;SDS011;3894;49.700;10.770;2022-10-16T10:07:04;12.75;;;11.93;;
7703;SDS011;3894;49.700;10.770;2022-10-16T10:09:31;13.10;;;12.23;;
7703;SDS011;3894;49.700;10.770;2022-10-16T10:12:05;13.20;;;12.40;;
7703;SDS011;3894;49.700;10.770;2022-10-16T10:14:42;15.23;;;14.35;;
7703;SDS011;3894;49.700;10.770;2022-10-16T10:17:15;13.98;;;13.00;;
7703;SDS011;3894;49.700;10.770;2022-10-16T10:22:22;15.52;;;14.60;;
7703;SDS011;3894;49.700;10.770;2022-10-16T10:30:27;15.90;;;15.02;;
7703;SDS011;3894;49.700;10.770;2022-10-16T10:35:45;15.70;;;14.82;;
7703;SDS011;3894;49.700;10.770;2022-10-16T10:44:16;12.15;;;11.35;;
7703;SDS011;3894;49.700;10.770;2022-10-16T10:47:05;12.18;;;11.30;;
7703;SDS011;3894;49.700;10.770;2022-10-16T10:49:42;11.15;;;10.45;;
7703;SDS011;3894;49.700;10.770;2022-10-16T11:00:34;9.95;;;9.15;;
7703;SDS011;3894;49.700;10.770;2022-10-16T11:03:34;9.95;;;9.25;;
7703;SDS011;3894;49.700;10.770;2022-10-16T11:06:28;10.25;;;9.35;;
7703;SDS011;3894;49.700;10.770;2022-10-16T11:11:58;10.85;;;10.10;;
7703;SDS011;3894;49.700;10.770;2022-10-16T11:15:00;10.07;;;9.25;;
7703;SDS011;3894;49.700;10.770;2022-10-16T11:25:15;6.07;;;5.57;;
7703;SDS011;3894;49.700;10.770;2022-10-16T11:33:44;6.25;;;5.78;;
7703;SDS011;3894;49.700;10.770;2022-10-16T11:36:21;5.90;;;5.35;;
7703;SDS011;3894;49.700;10.770;2022-10-16T11:39:01;5.33;;;4.83;;
7703;SDS011;3894;49.700;10.770;2022-10-16T11:44:22;7.32;;;6.65;;
7703;SDS011;3894;49.700;10.770;2022-10-16T11:57:44;9.35;;;8.23;;
7703;SDS011;3894;49.700;10.770;2022-10-16T12:00:30;10.13;;;9.30;;
7703;SDS011;3894;49.700;10.770;2022-10-16T12:03:12;10.80;;;10.00;;
7703;SDS011;3894;49.700;10.770;2022-10-16T12:08:51;11.10;;;10.07;;
7703;SDS011;3894;49.700;10.770;2022-10-16T12:11:23;10.02;;;9.30;;
7703;SDS011;3894;49.700;10.770;2022-10-16T12:13:51;9.80;;;9.20;;
7703;SDS011;3894;49.700;10.770;2022-10-16T12:16:28;7.72;;;6.78;;
7703;SDS011;3894;49.700;10.770;2022-10-16T12:19:13;10.07;;;9.40;;
7703;SDS011;3894;49.700;10.770;2022-10-16T12:21:41;12.48;;;11.70;;
7703;SDS011;3894;49.700;10.770;2022-10-16T12:26:52;12.82;;;12.02;;
7703;SDS011;3894;49.700;10.770;2022-10-16T12:29:32;16.25;;;15.27;;
7703;SDS011;3894;49.700;10.770;2022-10-16T12:31:59;17.67;;;16.77;;
7703;SDS011;3894;49.700;10.770;2022-10-16T12:34:40;22.30;;;21.05;;
7703;SDS011;3894;49.700;10.770;2022-10-16T12:37:18;10.70;;;10.00;;
7703;SDS011;3894;49.700;10.770;2022-10-16T12:39:48;17.90;;;17.00;;
7703;SDS011;3894;49.700;10.770;2022-10-16T12:42:19;25.50;;;24.23;;
7703;SDS011;3894;49.700;10.770;2022-10-16T12:44:45;21.73;;;20.57;;
7703;SDS011;3894;49.700;10.770;2022-10-16T12:47:36;30.08;;;28.13;;
7703;SDS011;3894;49.700;10.770;2022-10-16T12:50:31;35.83;;;33.90;;
7703;SDS011;3894;49.700;10.770;2022-10-16T12:53:00;24.67;;;23.33;;
7703;SDS011;3894;49.700;10.770;2022-10-16T12:55:27;26.23;;;24.92;;
7703;SDS011;3894;49.700;10.770;2022-10-16T13:00:45;7.80;;;7.18;;
7703;SDS011;3894;49.700;10.770;2022-10-16T13:05:57;8.80;;;8.20;;
7703;SDS011;3894;49.700;10.770;2022-10-16T13:19:28;34.45;;;32.58;;
7703;SDS011;3894;49.700;10.770;2022-10-16T13:27:53;27.38;;;25.90;;
7703;SDS011;3894;49.700;10.770;2022-10-16T13:30:30;22.52;;;21.38;;
7703;SDS011;3894;49.700;10.770;2022-10-16T13:33:02;26.07;;;24.70;;
7703;SDS011;3894;49.700;10.770;2022-10-16T13:35:33;24.93;;;23.67;;
7703;SDS011;3894;49.700;10.770;2022-10-16T13:40:49;18.48;;;17.55;;
7703;SDS011;3894;49.700;10.770;2022-10-16T13:43:17;25.50;;;24.15;;
7703;SDS011;3894;49.700;10.770;2022-10-16T13:45:58;26.00;;;24.45;;
7703;SDS011;3894;49.700;10.770;2022-10-16T13:48:25;23.88;;;22.75;;
7703;SDS011;3894;49.700;10.770;2022-10-16T13:50:58;30.60;;;29.15;;
7703;SDS011;3894;49.700;10.770;2022-10-16T13:53:29;23.13;;;21.90;;
7703;SDS011;3894;49.700;10.770;2022-10-16T13:55:59;23.83;;;22.65;;
7703;SDS011;3894;49.700;10.770;2022-10-16T13:58:27;25.83;;;24.48;;
7703;SDS011;3894;49.700;10.770;2022-10-16T14:00:54;36.17;;;34.50;;
7703;SDS011;3894;49.700;10.770;2022-10-16T14:03:21;44.75;;;42.50;;
7703;SDS011;3894;49.700;10.770;2022-10-16T14:05:55;32.97;;;31.33;;
7703;SDS011;3894;49.700;10.770;2022-10-16T14:08:24;41.42;;;39.40;;
7703;SDS011;3894;49.700;10.770;2022-10-16T14:10:51;61.55;;;58.60;;
7703;SDS011;3894;49.700;10.770;2022-10-16T14:13:21;42.55;;;40.55;;
7703;SDS011;3894;49.700;10.770;2022-10-16T14:16:00;41.40;;;39.30;;
7703;SDS011;3894;49.700;10.770;2022-10-16T14:18:30;39.35;;;37.45;;
7703;SDS011;3894;49.700;10.770;2022-10-16T14:21:02;41.60;;;39.58;;
7703;SDS011;3894;49.700;10.770;2022-10-16T14:23:34;31.58;;;29.98;;
7703;SDS011;3894;49.700;10.770;2022-10-16T14:28:38;32.40;;;30.73;;
7703;SDS011;3894;49.700;10.770;2022-10-16T14:31:23;33.00;;;31.42;;
7703;SDS011;3894;49.700;10.770;2022-10-16T14:33:52;38.13;;;36.28;;
7703;SDS011;3894;49.700;10.770;2022-10-16T14:36:18;38.90;;;37.03;;
7703;SDS011;3894;49.700;10.770;2022-10-16T14:39:04;50.30;;;47.90;;
7703;SDS011;3894;49.700;10.770;2022-10-16T14:41:46;44.67;;;42.53;;
7703;SDS011;3894;49.700;10.770;2022-10-16T14:44:13;49.00;;;46.50;;
7703;SDS011;3894;49.700;10.770;2022-10-16T14:46:42;47.17;;;44.90;;
7703;SDS011;3894;49.700;10.770;2022-10-16T14:51:35;37.30;;;35.47;;
7703;SDS011;3894;49.700;10.770;2022-10-16T14:54:01;45.80;;;43.67;;
7703;SDS011;3894;49.700;10.770;2022-10-16T14:56:29;50.65;;;48.22;;
7703;SDS011;3894;49.700;10.770;2022-10-16T14:58:57;49.67;;;47.10;;
7703;SDS011;3894;49.700;10.770;2022-10-16T15:01:23;62.17;;;59.25;;
7703;SDS011;3894;49.700;10.770;2022-10-16T15:03:49;64.30;;;61.15;;
7703;SDS011;3894;49.700;10.770;2022-10-16T15:06:17;62.90;;;59.72;;
7703;SDS011;3894;49.700;10.770;2022-10-16T15:08:42;40.47;;;38.38;;
7703;SDS011;3894;49.700;10.770;2022-10-16T15:11:10;58.53;;;55.72;;
7703;SDS011;3894;49.700;10.770;2022-10-16T15:13:44;53.30;;;50.08;;
7703;SDS011;3894;49.700;10.770;2022-10-16T15:16:12;49.20;;;46.70;;
7703;SDS011;3894;49.700;10.770;2022-10-16T15:18:38;33.45;;;31.58;;
7703;SDS011;3894;49.700;10.770;2022-10-16T15:21:04;29.20;;;27.73;;
7703;SDS011;3894;49.700;10.770;2022-10-16T15:23:30;40.13;;;38.10;;
7703;SDS011;3894;49.700;10.770;2022-10-16T15:25:56;51.08;;;48.70;;
7703;SDS011;3894;49.700;10.770;2022-10-16T15:28:22;42.72;;;40.65;;
7703;SDS011;3894;49.700;10.770;2022-10-16T15:30:49;56.05;;;53.03;;
7703;SDS011;3894;49.700;10.770;2022-10-16T15:33:19;48.20;;;45.08;;
7703;SDS011;3894;49.700;10.770;2022-10-16T15:35:48;63.10;;;59.10;;
7703;SDS011;3894;49.700;10.770;2022-10-16T15:38:14;54.30;;;49.67;;
7703;SDS011;3894;49.700;10.770;2022-10-16T15:40:41;56.88;;;51.67;;
7703;SDS011;3894;49.700;10.770;2022-10-16T15:43:07;70.15;;;64.40;;
7703;SDS011;3894;49.700;10.770;2022-10-16T15:45:33;38.50;;;35.83;;
7703;SDS011;3894;49.700;10.770;2022-10-16T15:47:59;49.33;;;46.65;;
7703;SDS011;3894;49.700;10.770;2022-10-16T15:50:25;43.35;;;40.67;;
7703;SDS011;3894;49.700;10.770;2022-10-16T15:52:51;34.70;;;32.72;;
7703;SDS011;3894;49.700;10.770;2022-10-16T15:55:17;36.83;;;34.53;;
7703;SDS011;3894;49.700;10.770;2022-10-16T15:57:43;62.60;;;59.50;;
7703;SDS011;3894;49.700;10.770;2022-10-16T16:00:11;42.95;;;40.50;;
7703;SDS011;3894;49.700;10.770;2022-10-16T16:02:39;43.33;;;41.03;;
7703;SDS011;3894;49.700;10.770;2022-10-16T16:05:06;64.97;;;61.95;;
7703;SDS011;3894;49.700;10.770;2022-10-16T16:07:33;50.38;;;47.90;;
7703;SDS011;3894;49.700;10.770;2022-10-16T16:10:04;79.57;;;76.05;;
7703;SDS011;3894;49.700;10.770;2022-10-16T16:12:32;87.40;;;83.43;;
7703;SDS011;3894;49.700;10.770;2022-10-16T16:14:58;83.85;;;80.28;;
7703;SDS011;3894;49.700;10.770;2022-10-16T16:17:23;76.68;;;73.25;;
7703;SDS011;3894;49.700;10.770;2022-10-16T16:19:49;74.30;;;70.93;;
7703;SDS011;3894;49.700;10.770;2022-10-16T16:22:15;55.50;;;52.83;;
7703;SDS011;3894;49.700;10.770;2022-10-16T16:24:41;71.97;;;68.53;;
7703;SDS011;3894;49.700;10.770;2022-10-16T16:27:07;41.10;;;38.83;;
7703;SDS011;3894;49.700;10.770;2022-10-16T16:29:34;52.55;;;50.15;;
7703;SDS011;3894;49.700;10.770;2022-10-16T16:32:00;42.08;;;39.70;;
7703;SDS011;3894;49.700;10.770;2022-10-16T16:34:26;49.53;;;46.92;;
7703;SDS011;3894;49.700;10.770;2022-10-16T16:36:53;49.28;;;46.67;;
7703;SDS011;3894;49.700;10.770;2022-10-16T16:39:19;62.25;;;59.20;;
7703;SDS011;3894;49.700;10.770;2022-10-16T16:41:45;48.25;;;45.30;;
7703;SDS011;3894;49.700;10.770;2022-10-16T16:44:12;58.10;;;54.60;;
7703;SDS011;3894;49.700;10.770;2022-10-16T16:46:38;41.22;;;38.63;;
7703;SDS011;3894;49.700;10.770;2022-10-16T16:49:05;40.97;;;38.45;;
7703;SDS011;3894;49.700;10.770;2022-10-16T16:51:31;62.28;;;59.08;;
7703;SDS011;3894;49.700;10.770;2022-10-16T16:53:58;34.08;;;32.05;;